Time;durP1;ratioP1;P1;durP2;ratioP2;P2;SDS_P1;SDS_P2;PMS_P1;PMS_P2;Temp;Humidity;BMP_temperature;BMP_pressure;BME280_temperature;BME280_humidity;BME280_pressure;Samples;Min_cycle;Max_cycle;Signal;HPM_P1;HPM_P2
2022/09/18 00:01:23;;;;;;;12.52;10.00;;;;;;;9.83;80.04;98423.81;5080353;27;20558;-69
2022/09/18 00:03:48;;;;;;;13.10;7.25;;;;;;;9.83;79.58;98430.94;5098589;27;20049;-69
2022/09/18 00:06:17;;;;;;;13.15;8.70;;;;;;;9.80;80.10;98428.59;5098075;27;20042;-71
2022/09/18 00:08:45;;;;;;;14.43;9.50;;;;;;;9.79;79.59;98427.75;5062799;27;20038;-68
2022/09/18 00:11:13;;;;;;;12.18;8.15;;;;;;;9.79;80.19;98430.41;5097286;27;20499;-68
2022/09/18 00:13:39;;;;;;;14.70;8.43;;;;;;;9.79;80.12;98413.59;5050977;28;20084;-67
2022/09/18 00:16:05;;;;;;;14.05;8.45;;;;;;;9.78;80.25;98410.09;5076743;28;20454;-72
2022/09/18 00:18:31;;;;;;;12.68;7.25;;;;;;;9.79;80.58;98419.75;5059129;28;20032;-69
2022/09/18 00:21:05;;;;;;;16.65;7.75;;;;;;;9.86;80.68;98413.88;5076746;28;20082;-65
2022/09/18 00:23:30;;;;;;;11.13;7.20;;;;;;;9.83;80.24;98417.66;5077157;28;20409;-68
2022/09/18 00:25:55;;;;;;;14.18;7.45;;;;;;;9.82;80.63;98408.81;5058535;28;20464;-67
2022/09/18 00:28:19;;;;;;;15.73;7.53;;;;;;;9.81;80.67;98408.97;5076629;28;20047;-67
2022/09/18 00:30:44;;;;;;;10.95;6.57;;;;;;;9.89;79.87;98408.28;5041899;28;20062;-69
2022/09/18 00:33:09;;;;;;;13.65;6.93;;;;;;;9.84;79.57;98406.88;5076962;28;20507;-68
2022/09/18 00:35:34;;;;;;;8.80;6.18;;;;;;;9.81;79.69;98406.31;5077165;28;20498;-70
2022/09/18 00:37:58;;;;;;;11.93;7.63;;;;;;;9.76;80.54;98406.72;5077120;28;20193;-69
2022/09/18 00:40:23;;;;;;;8.77;6.93;;;;;;;9.73;81.47;98411.44;5059012;28;20040;-69
2022/09/18 00:42:48;;;;;;;9.38;6.93;;;;;;;9.68;81.84;98408.38;5076991;28;20047;-68
2022/09/18 00:45:12;;;;;;;10.68;7.60;;;;;;;9.70;81.70;98412.59;5076139;28;20039;-67
2022/09/18 00:47:44;;;;;;;11.88;7.20;;;;;;;9.71;81.76;98414.25;5061019;27;20047;-67
2022/09/18 00:50:17;;;;;;;10.40;7.65;;;;;;;9.73;81.64;98409.63;5073510;27;20039;-68
2022/09/18 00:52:56;;;;;;;9.55;5.88;;;;;;;9.76;81.57;98412.03;5066183;27;20130;-67
2022/09/18 00:55:31;;;;;;;11.55;6.43;;;;;;;9.80;80.79;98413.47;5076328;27;20046;-66
2022/09/18 00:57:58;;;;;;;12.30;7.15;;;;;;;9.74;80.84;98400.66;5076526;27;20084;-67
2022/09/18 01:00:23;;;;;;;9.13;6.43;;;;;;;9.72;81.45;98405.28;5076468;27;20038;-68
2022/09/18 01:02:47;;;;;;;13.60;6.65;;;;;;;9.75;80.67;98406.84;5094820;27;20035;-68
2022/09/18 01:05:16;;;;;;;12.60;7.47;;;;;;;9.65;81.26;98417.44;5076298;27;20046;-68
2022/09/18 01:07:52;;;;;;;9.82;7.20;;;;;;;9.60;82.16;98413.50;5067549;27;20370;-66
2022/09/18 01:10:34;;;;;;;9.07;6.85;;;;;;;9.61;82.24;98410.69;5076372;27;20039;-66
2022/09/18 01:13:42;;;;;;;12.27;6.45;;;;;;;9.66;81.76;98408.50;5062793;27;20043;-66
2022/09/18 01:16:24;;;;;;;9.57;7.18;;;;;;;9.63;81.24;98406.09;5096133;27;20394;-66
2022/09/18 01:19:25;;;;;;;11.05;7.10;;;;;;;9.62;81.33;98416.88;5096412;27;20045;-68
2022/09/18 01:22:07;;;;;;;10.32;6.07;;;;;;;9.59;81.02;98414.50;4993167;28;20063;-67
2022/09/18 01:24:52;;;;;;;8.02;6.15;;;;;;;9.48;80.92;98418.06;4976884;28;20045;-66
2022/09/18 01:27:44;;;;;;;9.88;6.43;;;;;;;9.44;82.04;98424.63;4976957;28;20056;-67
2022/09/18 01:30:11;;;;;;;13.85;6.40;;;;;;;9.36;81.89;98421.81;4960121;28;20049;-66
2022/09/18 01:32:51;;;;;;;10.38;7.57;;;;;;;9.37;82.02;98424.31;4944257;28;20103;-68
2022/09/18 01:35:30;;;;;;;13.90;6.80;;;;;;;9.37;81.94;98426.13;4960576;28;20041;-66
2022/09/18 01:38:14;;;;;;;9.40;7.00;;;;;;;9.32;82.55;98428.34;4960274;28;20052;-68
2022/09/18 01:40:49;;;;;;;10.90;6.60;;;;;;;9.31;82.84;98424.84;4976709;28;20049;-66
2022/09/18 01:43:17;;;;;;;15.13;6.57;;;;;;;9.29;82.65;98421.47;4992985;28;20515;-66
2022/09/18 01:45:50;;;;;;;9.65;6.45;;;;;;;9.28;82.63;98430.41;4976632;28;20041;-65
2022/09/18 01:48:47;;;;;;;9.15;6.97;;;;;;;9.28;83.28;98430.41;4976021;28;20064;-66
2022/09/18 01:51:19;;;;;;;11.50;6.95;;;;;;;9.20;83.44;98435.56;4976479;28;20037;-68
2022/09/18 01:53:48;;;;;;;12.85;7.00;;;;;;;9.19;83.04;98430.34;4976616;28;20155;-68
2022/09/18 01:56:23;;;;;;;11.02;6.72;;;;;;;9.23;82.30;98437.97;4976525;28;20041;-70
2022/09/18 01:58:51;;;;;;;13.05;7.38;;;;;;;9.11;83.16;98431.03;5036073;28;20079;-68
2022/09/18 02:01:21;;;;;;;14.10;7.72;;;;;;;9.08;83.72;98442.75;5084684;28;20043;-67
2022/09/18 02:03:53;;;;;;;9.98;6.50;;;;;;;9.14;83.22;98436.09;5080318;28;20126;-68
2022/09/18 02:06:27;;;;;;;9.73;7.47;;;;;;;9.12;83.38;98442.50;5044444;28;20035;-68
2022/09/18 02:08:55;;;;;;;10.27;6.95;;;;;;;9.04;83.61;98436.00;5078186;28;20079;-68
2022/09/18 02:11:22;;;;;;;13.48;7.90;;;;;;;8.97;83.80;98445.47;5090896;27;20383;-68
2022/09/18 02:13:53;;;;;;;10.25;6.25;;;;;;;8.99;84.21;98435.56;5076574;28;20067;-68
2022/09/18 02:16:43;;;;;;;14.45;7.38;;;;;;;8.98;84.30;98431.22;5060088;28;20040;-69
2022/09/18 02:19:17;;;;;;;10.38;6.32;;;;;;;9.01;83.86;98432.78;5061880;28;20097;-68
2022/09/18 02:21:46;;;;;;;12.18;7.00;;;;;;;8.96;83.55;98435.81;5077667;28;20444;-68
2022/09/18 02:24:13;;;;;;;9.15;7.50;;;;;;;8.97;83.22;98432.19;5063253;28;20512;-68
2022/09/18 02:26:40;;;;;;;14.18;7.10;;;;;;;8.91;83.57;98427.41;5062563;28;20575;-69
2022/09/18 02:29:08;;;;;;;15.27;7.10;;;;;;;8.84;84.46;98436.00;5079203;28;20532;-66
2022/09/18 02:31:35;;;;;;;14.02;7.22;;;;;;;8.83;83.98;98434.31;5061154;28;20039;-68
2022/09/18 02:34:00;;;;;;;11.45;7.30;;;;;;;8.83;84.27;98437.81;5060974;28;20593;-68
2022/09/18 02:36:46;;;;;;;11.13;7.90;;;;;;;8.80;84.43;98439.88;5044029;28;20601;-68
2022/09/18 02:39:13;;;;;;;12.80;7.55;;;;;;;8.84;84.23;98438.66;5043868;28;20041;-68
2022/09/18 02:41:50;;;;;;;8.98;5.60;;;;;;;8.85;83.79;98441.19;5027608;28;20489;-69
2022/09/18 02:44:32;;;;;;;12.63;8.23;;;;;;;8.86;83.64;98450.84;5060918;28;20048;-68
2022/09/18 02:47:28;;;;;;;8.30;6.75;;;;;;;8.81;83.81;98454.84;5061112;28;20498;-68
2022/09/18 02:50:13;;;;;;;13.52;8.55;;;;;;;8.76;84.60;98449.91;5044419;28;20054;-69
2022/09/18 02:52:58;;;;;;;10.68;7.38;;;;;;;8.71;85.03;98457.41;5044294;28;20362;-68
2022/09/18 02:55:29;;;;;;;11.13;7.57;;;;;;;8.67;85.65;98461.31;5060825;28;20410;-68
2022/09/18 02:57:53;;;;;;;10.23;6.88;;;;;;;8.66;84.43;98455.16;5061353;28;20472;-69
2022/09/18 03:00:19;;;;;;;8.57;5.72;;;;;;;8.74;84.33;98458.03;5061358;28;20050;-68
2022/09/18 03:02:46;;;;;;;13.35;8.57;;;;;;;8.63;84.97;98454.56;5078601;28;20520;-69
2022/09/18 03:05:13;;;;;;;13.15;8.25;;;;;;;8.60;85.53;98455.66;5042600;28;20406;-69
2022/09/18 03:07:46;;;;;;;15.80;9.65;;;;;;;8.50;86.29;98459.19;5058844;28;20047;-69
2022/09/18 03:10:10;;;;;;;11.77;8.00;;;;;;;8.55;86.23;98464.97;5043338;28;20066;-69
2022/09/18 03:12:35;;;;;;;11.10;8.15;;;;;;;8.57;86.39;98455.06;5079660;28;20078;-70
2022/09/18 03:15:00;;;;;;;13.15;8.50;;;;;;;8.59;85.83;98461.09;5061449;28;20125;-70
2022/09/18 03:17:25;;;;;;;10.52;7.57;;;;;;;8.58;85.86;98446.97;5044543;28;20074;-67
2022/09/18 03:19:50;;;;;;;12.40;7.93;;;;;;;8.59;86.51;98450.47;5061732;28;20058;-68
2022/09/18 03:22:14;;;;;;;12.82;7.97;;;;;;;8.60;86.40;98462.78;5043771;28;20047;-67
2022/09/18 03:24:40;;;;;;;11.88;9.02;;;;;;;8.59;86.23;98458.44;5043111;28;20039;-67
2022/09/18 03:27:05;;;;;;;20.90;8.95;;;;;;;8.63;86.48;98454.56;5077614;28;20043;-67
2022/09/18 03:29:30;;;;;;;14.27;8.40;;;;;;;8.65;86.53;98463.25;5042670;28;20047;-67
2022/09/18 03:31:56;;;;;;;11.73;7.90;;;;;;;8.70;86.26;98455.72;5026211;28;20130;-67
2022/09/18 03:34:20;;;;;;;12.18;7.90;;;;;;;8.71;86.37;98460.06;5063718;28;20077;-70
2022/09/18 03:36:46;;;;;;;13.52;8.90;;;;;;;8.78;86.21;98458.63;5068325;28;20125;-67
2022/09/18 03:39:13;;;;;;;11.95;8.50;;;;;;;8.90;86.72;98460.25;5059721;28;20471;-67
2022/09/18 03:41:38;;;;;;;15.07;8.38;;;;;;;9.06;86.76;98460.63;5077946;28;20116;-67
2022/09/18 03:44:05;;;;;;;11.93;8.35;;;;;;;9.17;86.33;98462.41;5059402;28;20039;-66
2022/09/18 03:46:29;;;;;;;13.55;8.23;;;;;;;9.37;86.07;98464.19;5058772;28;20056;-67
2022/09/18 03:48:57;;;;;;;11.93;8.00;;;;;;;9.55;85.03;98458.28;5042673;28;20384;-68
2022/09/18 03:51:24;;;;;;;13.63;8.48;;;;;;;9.70;84.45;98449.00;5059075;28;20047;-67
2022/09/18 03:53:50;;;;;;;10.93;7.88;;;;;;;9.79;82.91;98451.69;5059176;28;20043;-69
2022/09/18 03:56:28;;;;;;;12.95;8.02;;;;;;;9.74;82.10;98445.91;5059012;28;20481;-69
2022/09/18 03:59:19;;;;;;;12.77;8.40;;;;;;;9.61;82.44;98447.94;5014766;28;20069;-68
2022/09/18 04:01:49;;;;;;;10.82;8.23;;;;;;;9.59;81.96;98430.47;5014423;28;20428;-67
2022/09/18 04:04:27;;;;;;;11.82;7.88;;;;;;;9.57;81.81;98435.91;5015116;28;20114;-68
2022/09/18 04:07:10;;;;;;;11.45;8.20;;;;;;;9.48;82.17;98439.34;5015066;28;20154;-68
2022/09/18 04:09:38;;;;;;;10.55;7.93;;;;;;;9.48;82.54;98440.19;5014593;28;20421;-67
2022/09/18 04:12:03;;;;;;;11.80;9.38;;;;;;;9.59;82.89;98438.44;5017660;28;20044;-68
2022/09/18 04:14:28;;;;;;;13.63;9.70;;;;;;;9.83;82.73;98441.59;5017437;28;20146;-68
2022/09/18 04:16:53;;;;;;;10.52;8.35;;;;;;;10.03;83.13;98431.88;5017760;28;20139;-68
2022/09/18 04:19:18;;;;;;;16.20;9.48;;;;;;;10.21;80.98;98451.56;5017546;28;20047;-68
2022/09/18 04:21:42;;;;;;;11.77;8.55;;;;;;;10.28;80.09;98443.88;5034317;28;20051;-67
2022/09/18 04:24:07;;;;;;;13.77;9.23;;;;;;;10.31;80.12;98451.59;5033957;28;20052;-67
2022/09/18 04:26:34;;;;;;;15.57;9.70;;;;;;;10.26;79.50;98446.69;5017559;28;20127;-67
2022/09/18 04:28:59;;;;;;;11.45;8.05;;;;;;;10.21;80.13;98451.56;5033848;28;20551;-68
2022/09/18 04:31:24;;;;;;;14.38;10.65;;;;;;;10.26;80.56;98454.69;5017271;28;20551;-68
2022/09/18 04:33:49;;;;;;;14.05;9.00;;;;;;;10.38;79.70;98447.44;4984275;28;20460;-68
2022/09/18 04:36:14;;;;;;;16.88;9.35;;;;;;;10.44;79.23;98446.84;5041525;28;20059;-67
2022/09/18 04:38:39;;;;;;;11.77;7.90;;;;;;;10.40;79.44;98456.94;5076938;28;20051;-67
2022/09/18 04:41:04;;;;;;;12.30;9.35;;;;;;;10.39;79.83;98449.06;5058158;28;20040;-68
2022/09/18 04:43:29;;;;;;;16.83;9.82;;;;;;;10.57;80.22;98451.94;5076457;28;20044;-68
2022/09/18 04:45:54;;;;;;;14.32;8.73;;;;;;;10.70;78.98;98444.50;5058159;28;20577;-68
2022/09/18 04:48:20;;;;;;;15.23;9.88;;;;;;;10.80;79.05;98451.53;5041330;28;20142;-68
2022/09/18 04:50:47;;;;;;;17.17;9.75;;;;;;;10.93;78.55;98450.41;5076190;28;20071;-69
2022/09/18 04:53:15;;;;;;;13.63;9.18;;;;;;;11.05;79.02;98449.28;5057959;28;20044;-68
2022/09/18 04:55:44;;;;;;;14.73;9.52;;;;;;;11.15;77.83;98442.94;5058964;28;20039;-68
2022/09/18 04:58:11;;;;;;;14.85;9.63;;;;;;;11.37;77.78;98440.94;5041171;28;20052;-68
2022/09/18 05:00:37;;;;;;;14.52;9.88;;;;;;;11.69;77.71;98453.91;5076027;28;20202;-68
2022/09/18 05:03:03;;;;;;;13.57;8.80;;;;;;;12.04;76.37;98443.41;5040793;28;20573;-68
2022/09/18 05:05:30;;;;;;;17.80;10.25;;;;;;;12.34;74.89;98448.44;5043156;28;20454;-66
2022/09/18 05:08:00;;;;;;;13.30;8.82;;;;;;;12.65;72.98;98437.38;5068018;28;20043;-68
2022/09/18 05:10:26;;;;;;;17.02;9.52;;;;;;;12.95;72.13;98430.84;5047621;28;20046;-68
2022/09/18 05:12:53;;;;;;;17.40;10.38;;;;;;;13.27;70.86;98435.63;5070136;28;20050;-69
2022/09/18 05:15:18;;;;;;;12.95;8.48;;;;;;;13.44;70.73;98434.75;5081413;28;20146;-68
2022/09/18 05:17:46;;;;;;;12.13;9.02;;;;;;;13.56;69.24;98436.16;5071436;28;20051;-69
2022/09/18 05:20:10;;;;;;;11.60;9.05;;;;;;;13.87;68.83;98431.19;5073761;28;20035;-67
2022/09/18 05:22:37;;;;;;;12.23;8.65;;;;;;;14.15;68.36;98427.25;5052736;28;20043;-68
2022/09/18 05:25:07;;;;;;;12.50;8.43;;;;;;;14.35;67.68;98425.16;5059027;28;20039;-67
2022/09/18 05:27:32;;;;;;;13.90;9.80;;;;;;;14.47;67.08;98420.34;5070486;28;20067;-67
2022/09/18 05:29:57;;;;;;;11.52;8.90;;;;;;;14.52;66.50;98424.22;5057243;28;20044;-70
2022/09/18 05:32:33;;;;;;;15.25;9.98;;;;;;;14.82;66.22;98421.94;5071825;28;20074;-67
2022/09/18 05:34:58;;;;;;;12.50;9.32;;;;;;;15.28;65.19;98420.41;5059198;28;20039;-66
2022/09/18 05:37:23;;;;;;;14.23;8.57;;;;;;;15.75;63.48;98420.53;5040259;28;20494;-65
2022/09/18 05:39:51;;;;;;;14.10;8.73;;;;;;;16.46;61.52;98413.38;5057413;28;20411;-65
2022/09/18 05:42:16;;;;;;;11.45;9.57;;;;;;;17.33;58.77;98409.38;5057454;28;20409;-66
2022/09/18 05:44:41;;;;;;;14.68;9.65;;;;;;;18.50;55.68;98409.41;5058189;28;20111;-66
2022/09/18 05:47:12;;;;;;;12.13;8.00;;;;;;;19.64;51.84;98410.31;5067577;28;20054;-66
2022/09/18 05:49:38;;;;;;;13.82;8.40;;;;;;;20.52;49.31;98401.47;5046003;28;20039;-65
2022/09/18 05:52:04;;;;;;;20.15;9.43;;;;;;;20.61;47.81;98392.13;5057119;28;20414;-67
2022/09/18 05:54:29;;;;;;;17.10;9.55;;;;;;;20.54;47.44;98404.78;5057052;28;20383;-66
2022/09/18 05:56:55;;;;;;;12.63;8.50;;;;;;;20.79;46.95;98405.06;5057301;28;20051;-68
2022/09/18 05:59:20;;;;;;;15.38;8.93;;;;;;;20.79;45.65;98412.34;5074981;28;20508;-66
2022/09/18 06:01:46;;;;;;;11.13;8.93;;;;;;;20.36;46.59;98419.91;5056906;28;20044;-67
2022/09/18 06:04:20;;;;;;;12.77;8.60;;;;;;;19.81;47.90;98408.16;5056945;28;20591;-68
2022/09/18 06:06:56;;;;;;;14.60;9.57;;;;;;;19.30;48.99;98410.25;5039770;28;20070;-66
2022/09/18 06:09:21;;;;;;;12.32;8.40;;;;;;;19.28;49.32;98406.91;5056873;28;20040;-66
2022/09/18 06:11:46;;;;;;;15.98;8.98;;;;;;;19.76;49.00;98397.09;5040327;28;20065;-67
2022/09/18 06:14:10;;;;;;;15.18;10.50;;;;;;;20.74;47.23;98404.88;5056520;28;20075;-67
2022/09/18 06:16:35;;;;;;;11.68;9.23;;;;;;;22.09;44.04;98402.63;5056734;28;20453;-66
2022/09/18 06:19:04;;;;;;;14.55;8.70;;;;;;;23.75;40.82;98406.03;5040654;28;20063;-67
2022/09/18 06:21:28;;;;;;;13.02;8.55;;;;;;;25.56;37.64;98407.88;5056829;28;20070;-66
2022/09/18 06:23:54;;;;;;;12.43;7.63;;;;;;;26.39;34.58;98407.66;5075389;28;20119;-68
2022/09/18 06:26:37;;;;;;;10.32;7.40;;;;;;;26.21;34.50;98405.03;5056850;28;20413;-67
2022/09/18 06:29:04;;;;;;;11.77;7.28;;;;;;;25.65;35.70;98410.06;5039951;28;20054;-67
2022/09/18 06:31:35;;;;;;;9.25;7.10;;;;;;;25.12;36.09;98406.50;5050007;28;20043;-66
2022/09/18 06:34:05;;;;;;;13.00;7.38;;;;;;;24.98;35.62;98402.28;5050941;28;20095;-67
2022/09/18 06:36:29;;;;;;;8.55;7.20;;;;;;;25.13;35.63;98410.88;5081620;28;20086;-67
2022/09/18 06:39:01;;;;;;;13.43;7.78;;;;;;;25.37;35.20;98403.59;5040477;28;20085;-67
2022/09/18 06:41:26;;;;;;;11.93;7.85;;;;;;;25.73;34.03;98403.44;5039975;28;20040;-67
2022/09/18 06:43:52;;;;;;;11.80;8.38;;;;;;;25.79;33.89;98401.63;5040240;28;20039;-67
2022/09/18 06:46:33;;;;;;;10.93;7.68;;;;;;;25.59;33.75;98402.78;5040026;28;20031;-67
2022/09/18 06:49:11;;;;;;;12.15;7.53;;;;;;;25.93;33.73;98398.44;5042972;28;20056;-68
2022/09/18 06:51:39;;;;;;;8.55;7.13;;;;;;;26.28;33.25;98395.69;5056582;28;20506;-67
2022/09/18 06:54:08;;;;;;;10.60;7.35;;;;;;;26.51;33.16;98404.91;5056926;28;20047;-68
2022/09/18 06:56:33;;;;;;;10.18;7.03;;;;;;;27.38;31.82;98395.38;5056807;28;20039;-67
2022/09/18 06:58:57;;;;;;;9.38;7.25;;;;;;;28.64;29.79;98400.25;5056418;28;20061;-66
2022/09/18 07:01:22;;;;;;;10.32;7.55;;;;;;;29.84;27.92;98404.47;5056730;28;20131;-66
2022/09/18 07:03:51;;;;;;;10.70;7.28;;;;;;;30.74;26.97;98397.00;5056582;28;20109;-67
2022/09/18 07:06:28;;;;;;;8.10;6.85;;;;;;;31.23;26.52;98406.53;5056679;28;20036;-67
2022/09/18 07:08:54;;;;;;;11.43;6.90;;;;;;;31.61;25.54;98399.66;5058472;28;20126;-68
2022/09/18 07:11:39;;;;;;;8.65;7.20;;;;;;;32.00;25.03;98399.91;5059030;28;20609;-67
2022/09/18 07:14:07;;;;;;;10.95;7.75;;;;;;;32.72;24.71;98400.59;5060509;28;20050;-67
2022/09/18 07:16:31;;;;;;;10.05;6.90;;;;;;;33.30;24.30;98401.63;5060425;28;20039;-66
2022/09/18 07:18:56;;;;;;;8.63;6.25;;;;;;;31.93;23.85;98393.88;5042671;28;20046;-66
2022/09/18 07:21:22;;;;;;;9.30;6.57;;;;;;;29.90;26.10;98387.75;5043018;28;20027;-66
2022/09/18 07:23:47;;;;;;;7.57;6.18;;;;;;;27.79;28.77;98380.44;5078466;28;20043;-66
2022/09/18 07:26:13;;;;;;;9.38;6.47;;;;;;;26.11;32.03;98381.06;5060088;28;20092;-67
2022/09/18 07:28:38;;;;;;;9.45;6.28;;;;;;;25.16;33.34;98374.97;5059669;28;20109;-67
2022/09/18 07:31:15;;;;;;;9.38;6.32;;;;;;;24.24;34.84;98379.78;5060735;28;20067;-71
2022/09/18 07:33:41;;;;;;;11.98;5.90;;;;;;;23.13;37.06;98361.56;5043620;28;20829;-71
2022/09/18 07:36:10;;;;;;;6.97;5.63;;;;;;;22.44;38.68;98364.25;5059628;28;20050;-68
2022/09/18 07:38:36;;;;;;;8.88;5.75;;;;;;;21.93;39.89;98367.75;5060837;28;20043;-73
